Time;durP1;ratioP1;P1;durP2;ratioP2;P2;SDS_P1;SDS_P2;PMS_P1;PMS_P2;Temp;Humidity;BMP_temperature;BMP_pressure;BME280_temperature;BME280_humidity;BME280_pressure;Samples;Min_cycle;Max_cycle;Signal;HPM_P1;HPM_P2
2021/10/23 00:00:15;;;;;;;47.33;19.33;;;;;;;7.77;76.89;101061.91;4997251;28;20062;-81
2021/10/23 00:02:42;;;;;;;47.70;19.58;;;;;;;7.73;76.82;101064.41;4997382;28;20073;-81
2021/10/23 00:05:10;;;;;;;43.95;19.15;;;;;;;7.70;76.59;101068.56;4997903;28;20065;-81
2021/10/23 00:07:37;;;;;;;37.55;17.95;;;;;;;7.65;76.55;101076.06;4996977;28;20050;-81
2021/10/23 00:10:05;;;;;;;39.70;17.90;;;;;;;7.65;76.33;101076.91;4997314;28;20050;-80
2021/10/23 00:12:34;;;;;;;42.50;18.92;;;;;;;7.58;75.77;101081.91;4996873;28;20058;-81
2021/10/23 00:15:02;;;;;;;37.30;17.63;;;;;;;7.51;76.27;101076.63;4996261;28;20053;-81
2021/10/23 00:17:29;;;;;;;41.30;17.38;;;;;;;7.50;76.34;101079.72;4997433;28;20054;-81
2021/10/23 00:20:00;;;;;;;54.25;21.45;;;;;;;7.43;76.90;101091.09;4997284;28;20051;-81
2021/10/23 00:22:27;;;;;;;40.92;18.05;;;;;;;7.41;76.57;101086.91;4997041;28;20054;-80
2021/10/23 00:24:54;;;;;;;40.58;18.98;;;;;;;7.34;76.62;101089.97;4997810;28;20073;-81
2021/10/23 00:27:22;;;;;;;48.22;20.92;;;;;;;7.34;76.89;101094.69;4998264;28;20073;-81
2021/10/23 00:29:52;;;;;;;41.20;18.65;;;;;;;7.29;76.30;101093.56;4998309;28;20054;-81
2021/10/23 00:32:20;;;;;;;44.42;20.10;;;;;;;7.27;76.66;101104.09;4997849;28;20057;-80
2021/10/23 00:34:47;;;;;;;46.28;19.42;;;;;;;7.25;76.01;101100.78;4998087;28;20058;-80
2021/10/23 00:37:14;;;;;;;51.67;20.58;;;;;;;7.24;76.07;101110.19;4997888;28;20517;-80
2021/10/23 00:39:42;;;;;;;44.70;20.63;;;;;;;7.25;75.90;101106.31;4997160;28;20061;-80
2021/10/23 00:42:09;;;;;;;44.53;19.88;;;;;;;7.21;76.88;101107.97;4997317;28;20050;-80
2021/10/23 00:44:38;;;;;;;46.55;20.27;;;;;;;7.16;77.00;101107.97;4997063;28;20046;-80
2021/10/23 00:47:09;;;;;;;44.85;20.83;;;;;;;7.13;77.67;101108.50;4997370;28;20475;-80
2021/10/23 00:49:38;;;;;;;49.92;21.15;;;;;;;7.12;77.24;101117.94;4996891;28;20066;-80
2021/10/23 00:52:08;;;;;;;48.97;21.40;;;;;;;7.16;77.27;101121.84;4998497;28;20065;-80
2021/10/23 00:54:36;;;;;;;50.95;21.67;;;;;;;7.18;77.22;101121.53;5000794;28;20499;-81
2021/10/23 00:57:05;;;;;;;48.33;20.98;;;;;;;7.20;76.93;101130.41;5000940;28;20391;-80
2021/10/23 00:59:33;;;;;;;45.67;21.48;;;;;;;7.21;77.28;101121.81;5000506;28;20050;-80
2021/10/23 01:02:01;;;;;;;54.17;22.90;;;;;;;7.22;77.52;101129.00;5000318;28;20058;-81
2021/10/23 01:04:31;;;;;;;54.67;21.27;;;;;;;7.20;77.56;101122.94;5000293;28;20065;-81
2021/10/23 01:06:58;;;;;;;49.33;21.17;;;;;;;7.23;77.62;101122.38;5000659;28;20046;-81
2021/10/23 01:09:26;;;;;;;50.33;21.98;;;;;;;7.26;77.38;101124.59;5000734;28;20050;-81
2021/10/23 01:11:54;;;;;;;45.97;21.17;;;;;;;7.29;77.47;101129.59;5001345;28;20492;-81
2021/10/23 01:14:25;;;;;;;48.25;21.13;;;;;;;7.30;77.69;101131.25;4999984;28;20065;-80
2021/10/23 01:16:54;;;;;;;49.95;21.05;;;;;;;7.29;77.33;101129.59;4980804;28;20063;-80
2021/10/23 01:19:23;;;;;;;42.88;20.90;;;;;;;7.27;77.24;101134.56;4981021;28;20475;-81
2021/10/23 01:21:53;;;;;;;43.33;20.73;;;;;;;7.25;77.57;101124.88;4980899;28;20054;-81
2021/10/23 01:24:22;;;;;;;46.35;20.33;;;;;;;7.25;76.97;101128.47;4980778;28;20047;-80
2021/10/23 01:26:49;;;;;;;44.40;19.20;;;;;;;7.23;77.57;101119.59;4980392;28;20499;-81
2021/10/23 01:29:19;;;;;;;38.78;19.10;;;;;;;7.20;76.94;101128.50;4996630;28;20057;-81
2021/10/23 01:31:50;;;;;;;42.42;19.83;;;;;;;7.22;76.95;101130.97;4999732;28;20059;-81
2021/10/23 01:34:19;;;;;;;42.42;19.33;;;;;;;7.17;76.86;101126.25;4999793;28;20073;-81
2021/10/23 01:36:49;;;;;;;44.90;21.13;;;;;;;7.19;76.69;101124.03;5000028;28;20400;-81
2021/10/23 01:39:20;;;;;;;51.25;20.10;;;;;;;7.17;76.81;101126.25;5000059;28;20054;-81
2021/10/23 01:41:48;;;;;;;40.15;19.73;;;;;;;7.17;77.33;101117.13;4999390;28;20506;-81
2021/10/23 01:44:17;;;;;;;46.15;19.45;;;;;;;7.16;76.68;101124.59;4985140;28;20499;-81
2021/10/23 01:46:45;;;;;;;46.28;21.15;;;;;;;7.15;76.97;101117.38;4999458;28;20475;-81
2021/10/23 01:49:13;;;;;;;45.95;20.08;;;;;;;7.17;77.25;101123.47;4999772;28;20411;-81
2021/10/23 01:51:40;;;;;;;52.03;22.38;;;;;;;7.08;77.52;101127.91;4999555;28;20061;-81
2021/10/23 01:54:10;;;;;;;61.83;25.20;;;;;;;7.14;77.18;101112.97;4999634;28;20050;-81
2021/10/23 01:56:39;;;;;;;;;;;;;;;7.14;77.74;101121.28;4999986;28;20054;-81
2021/10/23 01:59:07;;;;;;;52.58;21.60;;;;;;;7.15;77.21;101117.38;4999235;28;19922;-81
2021/10/23 02:01:35;;;;;;;49.42;21.50;;;;;;;7.16;77.48;101123.75;4999368;28;20083;-81
2021/10/23 02:04:02;;;;;;;50.35;21.45;;;;;;;7.18;77.08;101114.06;4998121;28;20411;-81
2021/10/23 02:06:30;;;;;;;57.80;23.75;;;;;;;7.17;77.58;101119.88;4998658;28;20062;-80
2021/10/23 02:08:57;;;;;;;58.63;25.30;;;;;;;7.20;77.42;101113.78;4998163;28;20050;-81
2021/10/23 02:11:25;;;;;;;56.10;24.70;;;;;;;7.23;77.52;101122.38;4997495;28;20057;-81
2021/10/23 02:13:53;;;;;;;59.35;24.23;;;;;;;7.22;78.07;101111.56;4997393;28;20053;-80
2021/10/23 02:16:21;;;;;;;64.63;25.83;;;;;;;7.21;78.45;101109.91;4997255;28;20419;-80
2021/10/23 02:18:48;;;;;;;63.05;25.27;;;;;;;7.17;78.25;101112.41;4997037;28;20054;-80
2021/10/23 02:21:15;;;;;;;58.83;25.02;;;;;;;7.20;77.71;101108.25;4997591;28;20466;-80
2021/10/23 02:23:43;;;;;;;51.33;22.92;;;;;;;7.22;77.15;101111.56;4996733;28;20061;-80
2021/10/23 02:26:10;;;;;;;61.95;26.40;;;;;;;7.21;77.55;101113.50;4998011;28;20057;-81
2021/10/23 02:28:37;;;;;;;53.15;24.17;;;;;;;7.19;77.02;101114.91;4997265;28;20058;-80
2021/10/23 02:31:06;;;;;;;52.95;23.55;;;;;;;7.16;76.92;101113.53;4997022;28;20054;-80
2021/10/23 02:33:33;;;;;;;65.20;25.88;;;;;;;7.15;77.52;101116.56;4997143;28;20054;-80
2021/10/23 02:36:01;;;;;;;63.55;24.35;;;;;;;7.15;76.79;101120.16;4996792;28;20073;-80
2021/10/23 02:38:28;;;;;;;62.40;24.88;;;;;;;7.12;76.68;101115.19;4997706;28;20061;-80
2021/10/23 02:40:56;;;;;;;55.97;23.77;;;;;;;7.11;77.23;101114.31;4997379;28;20474;-81
2021/10/23 02:43:24;;;;;;;61.47;22.63;;;;;;;7.07;76.60;101115.16;4996733;28;20058;-80
2021/10/23 02:45:51;;;;;;;56.78;22.35;;;;;;;7.05;76.35;101129.28;4997360;28;20057;-81
2021/10/23 02:48:21;;;;;;;51.80;23.85;;;;;;;7.04;76.29;101137.88;4997230;28;20050;-80
2021/10/23 02:50:48;;;;;;;54.60;23.17;;;;;;;6.99;76.51;101149.78;4996771;28;20054;-80
2021/10/23 02:53:15;;;;;;;52.05;22.33;;;;;;;6.95;76.21;101151.44;4997043;28;20058;-81
2021/10/23 02:55:43;;;;;;;50.60;22.70;;;;;;;6.94;76.32;101160.00;4998190;28;20054;-81
2021/10/23 02:58:11;;;;;;;49.05;21.30;;;;;;;6.90;75.94;101166.06;4997959;28;20053;-81
2021/10/23 03:00:38;;;;;;;48.97;22.85;;;;;;;6.85;76.09;101160.53;4997976;28;20484;-81
2021/10/23 03:03:06;;;;;;;53.70;22.40;;;;;;;6.83;76.03;101165.50;4998216;28;20510;-81
2021/10/23 03:05:34;;;;;;;52.40;20.48;;;;;;;6.78;76.42;101162.72;4997579;28;20050;-81
2021/10/23 03:08:02;;;;;;;55.17;22.98;;;;;;;6.74;76.72;101166.31;4997892;28;20058;-81
2021/10/23 03:10:29;;;;;;;57.22;23.73;;;;;;;6.69;77.09;101169.91;4987179;28;20066;-81
2021/10/23 03:12:56;;;;;;;59.13;25.35;;;;;;;6.71;77.05;101181.53;4978625;28;20058;-81
2021/10/23 03:15:24;;;;;;;56.92;23.95;;;;;;;6.70;77.72;101185.41;4985719;28;20080;-81
2021/10/23 03:17:51;;;;;;;56.75;25.85;;;;;;;6.68;77.70;101188.44;4998031;28;20054;-81
2021/10/23 03:20:19;;;;;;;53.20;22.80;;;;;;;6.67;77.20;101180.41;4997365;28;20061;-81
2021/10/23 03:22:48;;;;;;;60.92;23.85;;;;;;;6.69;77.88;101178.19;4996988;28;20054;-81
2021/10/23 03:25:15;;;;;;;59.80;22.80;;;;;;;6.70;77.46;101177.94;4997798;28;20065;-81
2021/10/23 03:27:43;;;;;;;56.63;23.40;;;;;;;6.70;77.61;101186.25;4997761;28;20058;-81
2021/10/23 03:30:10;;;;;;;53.65;21.60;;;;;;;6.68;77.55;101184.84;4997999;28;20050;-81
2021/10/23 03:32:38;;;;;;;54.58;22.25;;;;;;;6.66;77.61;101185.13;4997157;28;20492;-81
2021/10/23 03:35:07;;;;;;;57.03;23.25;;;;;;;6.70;77.72;101190.94;4997544;28;20097;-81
2021/10/23 03:37:36;;;;;;;55.08;22.92;;;;;;;6.69;77.92;101198.41;4997317;28;20054;-80
2021/10/23 03:40:07;;;;;;;62.50;23.80;;;;;;;6.74;78.10;101189.31;4997806;28;20061;-81
2021/10/23 03:42:34;;;;;;;84.25;27.40;;;;;;;6.77;78.81;101187.94;4997627;28;20054;-81
2021/10/23 03:45:02;;;;;;;72.03;24.73;;;;;;;6.80;78.47;101201.22;4997079;28;20054;-81
2021/10/23 03:47:31;;;;;;;60.40;23.35;;;;;;;6.85;78.72;101190.19;4997178;28;20058;-81
2021/10/23 03:49:58;;;;;;;87.13;26.70;;;;;;;6.95;78.81;101189.34;4997503;28;20415;-81
2021/10/23 03:52:26;;;;;;;84.95;27.73;;;;;;;6.99;78.91;101190.47;4996717;28;20054;-81
2021/10/23 03:54:53;;;;;;;60.03;22.52;;;;;;;7.05;78.81;101186.63;4997276;28;20091;-81
2021/10/23 03:57:22;;;;;;;55.85;21.65;;;;;;;7.09;78.58;101184.97;4997094;28;20119;-81
2021/10/23 03:59:49;;;;;;;51.50;21.77;;;;;;;7.13;78.51;101180.53;4996600;28;20073;-81
2021/10/23 04:02:16;;;;;;;58.50;20.92;;;;;;;7.14;78.59;101176.69;4997009;28;20062;-81
2021/10/23 04:04:44;;;;;;;41.75;20.10;;;;;;;7.21;77.93;101170.88;4997127;28;20058;-81
2021/10/23 04:07:11;;;;;;;50.08;20.58;;;;;;;7.17;77.73;101156.72;4996991;28;20061;-81
2021/10/23 04:09:38;;;;;;;47.85;21.80;;;;;;;7.28;77.23;101158.38;4996888;28;20066;-81
2021/10/23 04:12:06;;;;;;;48.90;21.42;;;;;;;7.25;77.30;101155.34;4997358;28;20054;-81
2021/10/23 04:14:35;;;;;;;51.78;22.23;;;;;;;7.29;77.07;101139.84;4996101;28;20062;-80
2021/10/23 04:17:05;;;;;;;55.25;24.30;;;;;;;7.23;78.13;101143.72;4997243;28;20054;-80
2021/10/23 04:19:32;;;;;;;47.00;21.10;;;;;;;7.21;77.62;101154.25;4996894;28;20058;-80
2021/10/23 04:22:00;;;;;;;46.25;21.30;;;;;;;7.21;77.20;101157.03;4997070;28;20524;-81
2021/10/23 04:24:27;;;;;;;52.63;22.65;;;;;;;7.17;76.85;101162.25;4997359;28;20054;-81
2021/10/23 04:26:54;;;;;;;47.63;20.90;;;;;;;7.16;77.16;101160.63;5000482;28;20130;-81
2021/10/23 04:29:22;;;;;;;53.90;22.73;;;;;;;7.17;77.44;101170.56;5000885;28;20069;-81
2021/10/23 04:31:51;;;;;;;53.45;21.73;;;;;;;7.15;77.59;101174.72;5001193;28;20074;-81
2021/10/23 04:34:18;;;;;;;44.80;19.87;;;;;;;7.07;77.17;101173.31;5000264;28;20507;-81
2021/10/23 04:36:45;;;;;;;41.00;18.80;;;;;;;7.06;76.61;101191.06;5000010;28;20054;-81
2021/10/23 04:39:13;;;;;;;42.83;19.02;;;;;;;7.02;76.41;101189.94;5000559;28;20050;-81
2021/10/23 04:41:40;;;;;;;46.22;20.95;;;;;;;6.98;75.95;101199.91;5000780;28;20053;-81
2021/10/23 04:44:08;;;;;;;43.53;18.77;;;;;;;6.94;75.61;101207.91;4999924;28;20419;-81
2021/10/23 04:46:35;;;;;;;42.13;19.45;;;;;;;6.84;75.61;101210.66;5000258;28;20051;-80
2021/10/23 04:49:04;;;;;;;44.97;18.83;;;;;;;6.80;75.85;101209.53;5000205;28;20054;-81
2021/10/23 04:51:31;;;;;;;34.17;17.88;;;;;;;6.78;75.17;101228.34;5000578;28;20065;-81
2021/10/23 04:53:58;;;;;;;38.25;17.67;;;;;;;6.70;75.00;101225.00;5000670;28;20050;-81
2021/10/23 04:56:26;;;;;;;34.03;17.20;;;;;;;6.64;75.28;101211.41;5000751;28;20061;-81
2021/10/23 04:58:53;;;;;;;34.63;17.15;;;;;;;6.56;75.83;101211.91;5000170;28;20061;-80
2021/10/23 05:01:21;;;;;;;37.53;17.95;;;;;;;6.47;75.74;101206.91;5000670;28;20402;-81
2021/10/23 05:03:48;;;;;;;41.17;18.33;;;;;;;6.44;75.53;101207.41;4999643;28;20046;-81
2021/10/23 05:06:17;;;;;;;40.92;18.45;;;;;;;6.41;75.63;101202.44;4999205;28;20073;-81
2021/10/23 05:08:45;;;;;;;31.38;15.55;;;;;;;6.34;75.47;101201.00;4980414;28;20055;-80
2021/10/23 05:11:13;;;;;;;35.55;18.58;;;;;;;6.32;75.55;101204.06;4980624;28;20055;-80
2021/10/23 05:13:40;;;;;;;33.00;17.02;;;;;;;6.27;75.93;101207.59;4994732;28;20065;-80
2021/10/23 05:16:07;;;;;;;36.78;17.60;;;;;;;6.23;75.82;101205.66;4999644;28;20051;-80
2021/10/23 05:18:35;;;;;;;33.80;16.55;;;;;;;6.19;76.30;101205.34;4999651;28;20054;-80
2021/10/23 05:21:02;;;;;;;37.17;17.67;;;;;;;6.18;76.30;101200.91;4999536;28;20057;-81
2021/10/23 05:23:31;;;;;;;39.92;19.38;;;;;;;6.17;76.34;101198.41;5000005;28;20066;-80
2021/10/23 05:26:02;;;;;;;43.38;18.73;;;;;;;6.14;76.51;101198.97;4998621;28;20076;-81
2021/10/23 05:28:29;;;;;;;39.58;18.27;;;;;;;6.07;76.47;101208.31;4999682;28;20050;-81
2021/10/23 05:30:56;;;;;;;37.58;17.38;;;;;;;5.99;76.23;101208.81;4998828;28;20055;-81
2021/10/23 05:33:23;;;;;;;38.95;17.33;;;;;;;5.94;76.81;101211.50;4999560;28;20050;-80
2021/10/23 05:35:51;;;;;;;33.58;16.77;;;;;;;5.92;76.30;101221.97;4999122;28;20058;-80
2021/10/23 05:38:18;;;;;;;34.17;17.02;;;;;;;5.92;76.27;101227.50;4998251;28;20055;-81
2021/10/23 05:40:47;;;;;;;31.45;15.77;;;;;;;5.87;76.37;101227.50;4998428;28;20062;-80
2021/10/23 05:43:14;;;;;;;40.78;17.38;;;;;;;5.89;76.58;101233.59;4999338;28;20456;-81
2021/10/23 05:45:42;;;;;;;37.53;17.95;;;;;;;5.86;76.87;101234.13;4998722;28;20057;-80
2021/10/23 05:48:10;;;;;;;30.83;14.98;;;;;;;5.83;76.74;101238.22;4999322;28;20047;-80
2021/10/23 05:50:37;;;;;;;35.88;16.30;;;;;;;5.78;77.05;101237.38;4998702;28;20084;-80
2021/10/23 05:53:04;;;;;;;44.20;18.45;;;;;;;5.76;76.65;101236.81;5000256;28;20058;-80
2021/10/23 05:55:32;;;;;;;34.15;16.92;;;;;;;5.80;76.20;101236.00;4999195;28;20502;-80
2021/10/23 05:58:02;;;;;;;34.25;16.55;;;;;;;5.81;76.74;101239.59;5000426;28;20055;-81
2021/10/23 06:00:29;;;;;;;28.15;14.85;;;;;;;5.79;76.13;101239.03;4999960;28;20057;-81
2021/10/23 06:02:58;;;;;;;31.17;14.93;;;;;;;5.80;75.75;101249.00;4998569;28;21152;-80
2021/10/23 06:05:25;;;;;;;34.35;16.83;;;;;;;5.73;75.91;101253.91;4998480;28;20065;-81
2021/10/23 06:07:53;;;;;;;30.02;15.07;;;;;;;5.77;76.07;101250.34;4998895;28;20476;-80
2021/10/23 06:10:20;;;;;;;33.28;15.70;;;;;;;5.62;76.19;101252.97;4998343;28;20057;-81
2021/10/23 06:12:48;;;;;;;31.40;16.88;;;;;;;5.63;75.82;101254.66;4999084;28;20054;-81
2021/10/23 06:15:17;;;;;;;28.77;14.90;;;;;;;5.65;76.11;101255.22;4998651;28;20051;-81
2021/10/23 06:17:46;;;;;;;30.48;14.27;;;;;;;5.72;76.16;101260.53;4999117;28;20050;-80
2021/10/23 06:20:13;;;;;;;30.13;15.20;;;;;;;5.70;75.56;101260.78;4999363;28;20069;-81
2021/10/23 06:22:58;;;;;;;30.23;15.35;;;;;;;5.73;75.79;101257.50;4998902;28;20058;-80
2021/10/23 06:25:25;;;;;;;27.58;14.60;;;;;;;5.77;75.86;101263.34;4998629;28;20408;-81
2021/10/23 06:27:52;;;;;;;28.13;14.40;;;;;;;5.80;75.52;101260.06;4999019;28;20492;-81
2021/10/23 06:30:22;;;;;;;35.13;16.58;;;;;;;5.84;75.46;101266.72;4997987;28;20062;-81
2021/10/23 06:32:51;;;;;;;30.10;14.70;;;;;;;5.88;75.24;101271.47;4998771;28;20058;-80
2021/10/23 06:35:19;;;;;;;29.30;13.97;;;;;;;5.85;75.51;101277.50;4998299;28;20113;-81
2021/10/23 06:37:47;;;;;;;27.88;14.48;;;;;;;5.90;75.52;101277.56;4998150;28;20053;-81
2021/10/23 06:40:15;;;;;;;27.08;14.30;;;;;;;6.00;75.83;101281.53;4998509;28;20080;-80
2021/10/23 06:42:43;;;;;;;26.00;14.82;;;;;;;6.17;76.05;101286.94;4997894;28;20069;-81
2021/10/23 06:45:13;;;;;;;21.63;12.45;;;;;;;6.62;75.88;101297.47;4997872;28;20415;-81
2021/10/23 06:47:44;;;;;;;20.52;11.35;;;;;;;7.08;76.18;101294.94;4998555;28;20061;-81
2021/10/23 06:50:13;;;;;;;20.95;11.52;;;;;;;7.59;75.42;101301.75;4998078;28;20066;-81
2021/10/23 06:52:41;;;;;;;17.60;11.57;;;;;;;8.18;74.77;101308.75;4998640;28;20495;-81
2021/10/23 06:55:09;;;;;;;14.98;10.65;;;;;;;8.92;73.86;101307.25;4998266;28;20050;-81
2021/10/23 06:57:36;;;;;;;16.25;10.55;;;;;;;9.49;71.55;101313.41;4998385;28;20466;-81
2021/10/23 07:00:05;;;;;;;15.93;10.70;;;;;;;9.98;69.67;101328.41;4998220;28;20061;-81
2021/10/23 07:02:38;;;;;;;15.10;10.50;;;;;;;10.49;67.39;101326.06;4997416;28;20054;-81
2021/10/23 07:05:11;;;;;;;15.07;10.05;;;;;;;11.07;66.34;101339.13;4997837;28;20050;-82
2021/10/23 07:07:39;;;;;;;15.43;11.30;;;;;;;11.26;65.17;101336.38;4998755;28;20423;-81
2021/10/23 07:10:07;;;;;;;17.77;11.15;;;;;;;10.95;64.56;101338.69;4998118;28;20050;-81
2021/10/23 07:12:37;;;;;;;20.35;12.82;;;;;;;10.93;65.01;101340.94;4998847;28;20054;-81
2021/10/23 07:15:05;;;;;;;27.98;19.48;;;;;;;10.76;65.24;101349.75;4997475;28;20050;-81
2021/10/23 07:17:33;;;;;;;76.78;41.15;;;;;;;10.37;66.60;101350.66;4996945;28;20407;-81
2021/10/23 07:20:00;;;;;;;50.92;27.63;;;;;;;10.37;67.90;101350.66;4997642;28;20054;-81
2021/10/23 07:22:29;;;;;;;66.03;37.33;;;;;;;10.39;68.06;101351.22;4997263;28;20046;-81
2021/10/23 07:24:57;;;;;;;45.95;28.27;;;;;;;10.14;68.33;101357.78;4999192;28;20050;-80
2021/10/23 07:27:27;;;;;;;36.47;21.85;;;;;;;10.26;68.83;101355.47;4997409;28;20058;-81
2021/10/23 07:29:54;;;;;;;;;;;;;;;10.21;66.88;101357.47;4998350;28;20058;-80
2021/10/23 07:32:28;;;;;;;26.55;16.98;;;;;;;10.24;68.53;101356.88;4997736;28;19926;-89
2021/10/23 07:34:56;;;;;;;25.20;15.18;;;;;;;10.26;69.56;101361.03;4999783;28;20058;-90
2021/10/23 07:37:23;;;;;;;19.02;13.73;;;;;;;10.28;69.26;101353.22;4997985;28;20451;-87
2021/10/23 07:39:52;;;;;;;24.95;13.57;;;;;;;10.10;70.07;101363.13;4996711;28;20042;-80
2021/10/23 07:42:19;;;;;;;21.42;13.50;;;;;;;10.04;70.01;101355.91;5005255;28;20069;-80
2021/10/23 07:44:47;;;;;;;21.92;14.70;;;;;;;10.18;69.41;101374.75;4995148;28;20050;-79
2021/10/23 07:47:14;;;;;;;25.23;15.55;;;;;;;10.29;69.50;101371.63;4984855;28;20046;-79
2021/10/23 07:49:42;;;;;;;27.30;15.25;;;;;;;10.31;69.35;101374.09;4997072;28;20046;-80
2021/10/23 07:52:09;;;;;;;20.55;13.60;;;;;;;10.03;70.46;101376.50;4996789;28;20411;-80
2021/10/23 07:54:36;;;;;;;24.92;14.98;;;;;;;10.22;70.97;101382.22;5001284;28;20050;-80
2021/10/23 07:57:06;;;;;;;34.63;20.85;;;;;;;10.44;70.83;101394.91;4997214;28;20054;-80
2021/10/23 07:59:34;;;;;;;28.83;18.98;;;;;;;10.60;70.75;101388.06;5002621;28;20410;-80
2021/10/23 08:02:02;;;;;;;29.80;17.63;;;;;;;10.64;70.13;101393.91;5009203;28;20050;-80
2021/10/23 08:04:31;;;;;;;26.63;15.98;;;;;;;10.89;69.79;101385.28;5008053;28;20053;-80
2021/10/23 08:07:03;;;;;;;25.35;15.25;;;;;;;11.50;69.02;101394.94;4993180;28;20062;-80
2021/10/23 08:09:32;;;;;;;23.00;14.45;;;;;;;11.46;68.63;101393.84;4979969;28;20511;-80
2021/10/23 08:11:59;;;;;;;22.63;14.33;;;;;;;11.58;67.78;101394.28;4996152;28;20526;-80
2021/10/23 08:14:30;;;;;;;24.15;14.93;;;;;;;13.21;67.25;101397.56;4996064;28;20846;-79
2021/10/23 08:16:58;;;;;;;20.25;12.27;;;;;;;14.84;62.59;101392.22;4996755;28;20059;-79
2021/10/23 08:19:26;;;;;;;18.55;11.00;;;;;;;16.66;58.88;101388.19;4996968;28;20051;-80
2021/10/23 08:21:53;;;;;;;16.75;10.82;;;;;;;18.29;53.82;101383.31;4996078;28;20415;-80
2021/10/23 08:24:21;;;;;;;15.73;11.65;;;;;;;19.77;48.80;101381.63;4996912;28;20062;-80
2021/10/23 08:26:48;;;;;;;16.60;11.95;;;;;;;20.98;45.62;101386.44;4997054;28;20412;-80
2021/10/23 08:29:16;;;;;;;16.42;11.45;;;;;;;22.14;42.88;101402.25;4996986;28;20061;-80
2021/10/23 08:31:45;;;;;;;13.75;10.98;;;;;;;23.26;40.49;101400.50;4996227;28;20050;-79
2021/10/23 08:34:15;;;;;;;;;;;;;;;24.31;39.56;101400.91;4995645;28;20050;-79
2021/10/23 08:36:42;;;;;;;16.75;11.20;;;;;;;25.35;35.94;101404.19;4995879;28;19922;-79
2021/10/23 08:39:11;;;;;;;14.35;11.00;;;;;;;26.23;33.83;101398.72;4995735;28;20055;-79
2021/10/23 08:41:38;;;;;;;;;;;;;;;25.84;31.34;101404.97;4996901;28;20407;-79
2021/10/23 08:44:07;;;;;;;15.27;11.68;;;;;;;26.54;32.51;101397.22;4996583;28;19922;-79
2021/10/23 08:46:39;;;;;;;12.88;11.07;;;;;;;27.11;31.56;101400.28;4997467;28;20050;-79
2021/10/23 08:49:09;;;;;;;15.18;10.63;;;;;;;27.66;30.63;101401.97;4996274;28;20058;-79
2021/10/23 08:51:36;;;;;;;15.95;11.30;;;;;;;27.66;28.65;101401.16;4996170;28;20050;-80
2021/10/23 08:54:04;;;;;;;14.90;10.70;;;;;;;27.82;28.54;101406.44;4995550;28;20058;-79
2021/10/23 08:56:31;;;;;;;12.27;10.15;;;;;;;28.10;27.02;101412.16;4995871;28;20050;-79
2021/10/23 08:59:01;;;;;;;12.45;9.98;;;;;;;28.38;26.98;101409.63;4995498;28;20524;-79
2021/10/23 09:01:28;;;;;;;12.68;10.05;;;;;;;28.93;26.62;101412.63;4995591;28;20054;-80
2021/10/23 09:03:56;;;;;;;14.25;10.98;;;;;;;28.91;25.64;101406.50;4995575;28;20404;-80
2021/10/23 09:06:33;;;;;;;12.23;10.25;;;;;;;28.13;26.37;101410.50;4996080;28;20514;-80
2021/10/23 09:09:07;;;;;;;12.53;10.57;;;;;;;28.67;26.11;101410.34;4995202;28;20054;-80
2021/10/23 09:11:37;;;;;;;12.73;10.23;;;;;;;28.46;26.15;101403.44;4995777;28;20519;-80
2021/10/23 09:14:21;;;;;;;13.27;11.00;;;;;;;28.82;26.17;101405.34;4999202;28;20054;-80
2021/10/23 09:17:02;;;;;;;14.55;10.77;;;;;;;29.42;25.49;101412.75;4997893;28;20414;-79
2021/10/23 09:19:33;;;;;;;14.98;10.10;;;;;;;29.45;24.16;101417.66;4998347;28;20411;-79
2021/10/23 09:22:05;;;;;;;12.52;9.85;;;;;;;29.42;25.02;101421.38;4998694;28;20081;-80
2021/10/23 09:24:33;;;;;;;12.70;10.30;;;;;;;29.72;24.11;101426.47;4999239;28;20054;-79
2021/10/23 09:27:13;;;;;;;13.93;9.98;;;;;;;29.54;24.54;101429.44;4998769;28;20054;-80
2021/10/23 09:29:40;;;;;;;11.02;8.63;;;;;;;30.06;23.69;101419.16;4999487;28;20061;-80
2021/10/23 09:32:13;;;;;;;11.45;8.15;;;;;;;30.24;22.55;101424.69;4998754;28;20058;-79
2021/10/23 09:34:40;;;;;;;9.02;7.32;;;;;;;30.07;22.99;101429.41;4997645;28;20081;-79
2021/10/23 09:37:09;;;;;;;10.95;7.65;;;;;;;30.50;23.01;101438.38;4998764;28;20121;-79
2021/10/23 09:39:37;;;;;;;12.57;7.50;;;;;;;30.53;22.50;101430.97;4997008;28;20050;-81
2021/10/23 09:42:10;;;;;;;12.05;7.60;;;;;;;29.69;23.55;101446.56;4998484;28;20054;-80
2021/10/23 09:44:40;;;;;;;9.50;7.30;;;;;;;29.23;23.42;101442.84;4999465;28;20054;-80
2021/10/23 09:47:08;;;;;;;11.75;7.15;;;;;;;29.58;23.99;101443.78;4997787;28;20051;-80
2021/10/23 09:49:38;;;;;;;10.38;6.78;;;;;;;29.61;22.56;101444.97;4994611;28;20046;-80
2021/10/23 09:52:07;;;;;;;9.45;6.40;;;;;;;29.30;23.87;101447.69;5010262;28;20137;-80
2021/10/23 09:54:37;;;;;;;10.40;7.03;;;;;;;29.63;23.34;101449.09;5015110;28;20058;-80
2021/10/23 09:57:11;;;;;;;9.85;6.55;;;;;;;29.95;23.07;101454.56;4997359;28;20050;-81
2021/10/23 09:59:39;;;;;;;9.75;6.00;;;;;;;30.09;23.34;101452.78;4999045;28;20057;-82
2021/10/23 10:02:07;;;;;;;9.68;5.50;;;;;;;30.08;23.15;101456.91;5000333;28;20069;-82
2021/10/23 10:04:36;;;;;;;8.10;5.40;;;;;;;30.37;22.55;101456.66;5001805;28;20057;-82
2021/10/23 10:07:05;;;;;;;8.90;5.43;;;;;;;30.50;22.60;101460.59;5006841;28;20442;-82
2021/10/23 10:09:32;;;;;;;;;;;;;;;30.50;22.13;101461.41;4999653;28;20062;-82
2021/10/23 10:12:02;;;;;;;7.72;4.65;;;;;;;30.74;21.99;101467.25;4999136;28;19922;-82
2021/10/23 10:14:33;;;;;;;6.75;3.75;;;;;;;30.49;22.00;101477.03;4996825;28;20050;-82
2021/10/23 10:17:04;;;;;;;9.32;4.40;;;;;;;29.20;23.41;101471.53;4994722;28;20050;-82
2021/10/23 10:19:31;;;;;;;8.48;4.35;;;;;;;28.16;24.89;101474.75;4980371;28;20237;-83
2021/10/23 10:22:08;;;;;;;8.63;3.92;;;;;;;27.03;25.99;101489.31;5005067;28;20050;-83
2021/10/23 10:24:38;;;;;;;8.25;4.30;;;;;;;25.99;26.91;101494.41;4998561;28;20047;-83
2021/10/23 10:27:09;;;;;;;8.85;4.05;;;;;;;24.80;28.22;101495.16;5000814;28;20058;-83
2021/10/23 10:29:41;;;;;;;11.48;3.90;;;;;;;24.77;28.23;101498.81;5001149;28;20054;-83
2021/10/23 10:32:15;;;;;;;8.10;2.35;;;;;;;24.49;27.72;101495.19;5000274;28;20475;-82
2021/10/23 10:34:59;;;;;;;5.65;2.50;;;;;;;23.43;28.45;101498.69;5000736;28;20069;-83
2021/10/23 10:40:43;;;;;;;9.32;2.70;;;;;;;22.09;32.20;101507.56;4999020;28;20050;-83
2021/10/23 10:43:13;;;;;;;5.65;2.75;;;;;;;21.66;32.69;101510.09;5002734;28;20061;-83
2021/10/23 10:46:05;;;;;;;6.85;2.85;;;;;;;21.46;32.06;101509.19;5002426;28;20054;-83
2021/10/23 10:48:45;;;;;;;6.85;3.17;;;;;;;21.07;33.06;101511.72;4999863;28;20050;-83
2021/10/23 10:51:20;;;;;;;8.48;3.38;;;;;;;20.80;34.30;101513.34;5001649;28;20506;-83
2021/10/23 10:54:06;;;;;;;6.90;3.35;;;;;;;20.63;35.03;101516.50;5002904;28;20047;-83
2021/10/23 10:56:48;;;;;;;7.53;2.72;;;;;;;20.67;33.59;101514.59;5002630;28;20059;-83
2021/10/23 10:59:57;;;;;;;5.72;2.45;;;;;;;20.73;33.00;101515.16;5002290;28;20527;-83
2021/10/23 11:02:35;;;;;;;10.45;3.05;;;;;;;20.52;34.24;101510.47;5000757;28;20066;-83
2021/10/23 11:05:18;;;;;;;5.95;2.50;;;;;;;20.47;33.91;101505.88;5002003;28;20058;-82
2021/10/23 11:08:11;;;;;;;6.85;2.97;;;;;;;20.79;33.69;101506.06;4989370;28;20051;-84
2021/10/23 11:11:00;;;;;;;6.20;3.15;;;;;;;20.50;33.42;101503.53;4972106;28;20051;-82
2021/10/23 11:13:29;;;;;;;11.15;3.72;;;;;;;20.54;33.96;101501.63;4982029;28;20062;-82
2021/10/23 11:16:00;;;;;;;5.70;2.58;;;;;;;20.64;32.92;101499.16;4993739;28;20384;-83
2021/10/23 11:18:32;;;;;;;10.85;3.90;;;;;;;21.82;30.93;101495.94;5000741;28;20081;-83
2021/10/23 11:20:59;;;;;;;7.95;2.90;;;;;;;22.84;29.63;101488.56;5003208;28;20050;-83
2021/10/23 11:23:27;;;;;;;7.13;2.90;;;;;;;23.93;28.42;101484.53;4999088;28;20055;-83
2021/10/23 11:25:54;;;;;;;6.38;2.90;;;;;;;24.76;28.46;101485.75;4999067;28;20415;-84
2021/10/23 11:28:21;;;;;;;5.85;2.45;;;;;;;25.71;25.67;101475.81;4998903;28;20069;-84